sensor_id;sensor_type;location;lat;lon;timestamp;P1;durP1;ratioP1;P2;durP2;ratioP2
38653;SDS011;24413;52.450;20.706;2023-01-28T00:01:04;29.67;;;16.95;;
38653;SDS011;24413;52.450;20.706;2023-01-28T00:03:29;25.27;;;16.58;;
38653;SDS011;24413;52.450;20.706;2023-01-28T00:06:00;24.92;;;15.13;;
38653;SDS011;24413;52.450;20.706;2023-01-28T00:08:25;23.20;;;16.25;;
38653;SDS011;24413;52.450;20.706;2023-01-28T00:10:51;25.13;;;16.58;;
38653;SDS011;24413;52.450;20.706;2023-01-28T00:13:16;28.70;;;16.55;;
38653;SDS011;24413;52.450;20.706;2023-01-28T00:15:41;27.48;;;15.52;;
38653;SDS011;24413;52.450;20.706;2023-01-28T00:18:06;25.85;;;16.30;;
38653;SDS011;24413;52.450;20.706;2023-01-28T00:20:32;25.77;;;15.93;;
38653;SDS011;24413;52.450;20.706;2023-01-28T00:22:57;29.27;;;15.68;;
38653;SDS011;24413;52.450;20.706;2023-01-28T00:25:22;24.98;;;15.25;;
38653;SDS011;24413;52.450;20.706;2023-01-28T00:27:48;21.52;;;15.38;;
38653;SDS011;24413;52.450;20.706;2023-01-28T00:30:13;24.40;;;16.13;;
38653;SDS011;24413;52.450;20.706;2023-01-28T00:32:39;28.63;;;16.58;;
38653;SDS011;24413;52.450;20.706;2023-01-28T00:35:04;29.90;;;16.70;;
38653;SDS011;24413;52.450;20.706;2023-01-28T00:37:30;30.42;;;16.83;;
38653;SDS011;24413;52.450;20.706;2023-01-28T00:39:55;25.13;;;16.13;;
38653;SDS011;24413;52.450;20.706;2023-01-28T00:42:20;26.45;;;15.07;;
38653;SDS011;24413;52.450;20.706;2023-01-28T00:44:46;28.27;;;15.02;;
38653;SDS011;24413;52.450;20.706;2023-01-28T00:47:11;25.33;;;14.98;;
38653;SDS011;24413;52.450;20.706;2023-01-28T00:49:36;26.48;;;14.90;;
38653;SDS011;24413;52.450;20.706;2023-01-28T00:52:01;28.67;;;15.10;;
38653;SDS011;24413;52.450;20.706;2023-01-28T00:54:27;23.92;;;14.75;;
38653;SDS011;24413;52.450;20.706;2023-01-28T00:56:53;23.42;;;14.63;;
38653;SDS011;24413;52.450;20.706;2023-01-28T00:59:18;19.88;;;13.00;;
38653;SDS011;24413;52.450;20.706;2023-01-28T01:01:43;24.50;;;13.85;;
38653;SDS011;24413;52.450;20.706;2023-01-28T01:04:09;24.27;;;13.68;;
38653;SDS011;24413;52.450;20.706;2023-01-28T01:06:35;24.33;;;13.63;;
38653;SDS011;24413;52.450;20.706;2023-01-28T01:09:02;22.38;;;14.20;;
38653;SDS011;24413;52.450;20.706;2023-01-28T01:11:28;22.80;;;13.32;;
38653;SDS011;24413;52.450;20.706;2023-01-28T01:13:54;21.70;;;15.07;;
38653;SDS011;24413;52.450;20.706;2023-01-28T01:16:21;24.33;;;13.25;;
38653;SDS011;24413;52.450;20.706;2023-01-28T01:18:47;23.92;;;14.55;;
38653;SDS011;24413;52.450;20.706;2023-01-28T01:21:13;23.67;;;13.60;;
38653;SDS011;24413;52.450;20.706;2023-01-28T01:23:39;23.05;;;15.40;;
38653;SDS011;24413;52.450;20.706;2023-01-28T01:26:05;23.42;;;14.32;;
38653;SDS011;24413;52.450;20.706;2023-01-28T01:28:30;23.08;;;15.55;;
38653;SDS011;24413;52.450;20.706;2023-01-28T01:31:03;20.73;;;13.77;;
38653;SDS011;24413;52.450;20.706;2023-01-28T01:33:28;23.17;;;14.05;;
38653;SDS011;24413;52.450;20.706;2023-01-28T01:35:54;24.10;;;14.85;;
38653;SDS011;24413;52.450;20.706;2023-01-28T01:38:19;19.92;;;14.35;;
38653;SDS011;24413;52.450;20.706;2023-01-28T01:40:45;22.20;;;14.40;;
38653;SDS011;24413;52.450;20.706;2023-01-28T01:43:14;22.40;;;14.93;;
38653;SDS011;24413;52.450;20.706;2023-01-28T01:45:39;22.50;;;13.70;;
38653;SDS011;24413;52.450;20.706;2023-01-28T01:48:08;23.58;;;15.13;;
38653;SDS011;24413;52.450;20.706;2023-01-28T01:50:37;24.17;;;14.48;;
38653;SDS011;24413;52.450;20.706;2023-01-28T01:53:05;22.25;;;14.65;;
38653;SDS011;24413;52.450;20.706;2023-01-28T01:55:32;27.05;;;15.50;;
38653;SDS011;24413;52.450;20.706;2023-01-28T01:58:00;22.85;;;15.73;;
38653;SDS011;24413;52.450;20.706;2023-01-28T02:00:26;25.50;;;14.73;;
38653;SDS011;24413;52.450;20.706;2023-01-28T02:02:51;23.85;;;13.80;;
38653;SDS011;24413;52.450;20.706;2023-01-28T02:05:18;21.60;;;14.07;;
38653;SDS011;24413;52.450;20.706;2023-01-28T02:07:44;28.92;;;15.05;;
38653;SDS011;24413;52.450;20.706;2023-01-28T02:10:10;22.75;;;13.18;;
38653;SDS011;24413;52.450;20.706;2023-01-28T02:12:36;22.50;;;14.35;;
38653;SDS011;24413;52.450;20.706;2023-01-28T02:15:07;20.70;;;13.93;;
38653;SDS011;24413;52.450;20.706;2023-01-28T02:17:33;23.48;;;13.57;;
38653;SDS011;24413;52.450;20.706;2023-01-28T02:27:25;22.23;;;13.70;;
38653;SDS011;24413;52.450;20.706;2023-01-28T02:30:06;22.52;;;12.70;;
38653;SDS011;24413;52.450;20.706;2023-01-28T02:32:41;24.40;;;12.77;;
38653;SDS011;24413;52.450;20.706;2023-01-28T02:35:12;21.08;;;13.27;;
38653;SDS011;24413;52.450;20.706;2023-01-28T02:37:43;24.20;;;14.30;;
38653;SDS011;24413;52.450;20.706;2023-01-28T02:40:14;28.02;;;14.57;;
38653;SDS011;24413;52.450;20.706;2023-01-28T02:42:40;20.90;;;12.85;;
38653;SDS011;24413;52.450;20.706;2023-01-28T02:45:17;24.58;;;13.65;;
38653;SDS011;24413;52.450;20.706;2023-01-28T02:47:44;25.80;;;13.30;;
38653;SDS011;24413;52.450;20.706;2023-01-28T02:50:25;26.48;;;13.55;;
38653;SDS011;24413;52.450;20.706;2023-01-28T02:55:46;24.20;;;13.43;;
38653;SDS011;24413;52.450;20.706;2023-01-28T03:06:06;25.27;;;13.27;;
38653;SDS011;24413;52.450;20.706;2023-01-28T03:11:19;23.67;;;13.88;;
38653;SDS011;24413;52.450;20.706;2023-01-28T03:14:04;25.33;;;14.65;;
38653;SDS011;24413;52.450;20.706;2023-01-28T03:16:48;20.90;;;12.80;;
38653;SDS011;24413;52.450;20.706;2023-01-28T03:19:33;17.33;;;10.55;;
38653;SDS011;24413;52.450;20.706;2023-01-28T03:22:17;21.77;;;12.38;;
38653;SDS011;24413;52.450;20.706;2023-01-28T03:25:01;21.23;;;12.95;;
38653;SDS011;24413;52.450;20.706;2023-01-28T03:27:47;25.27;;;13.60;;
38653;SDS011;24413;52.450;20.706;2023-01-28T03:30:37;21.08;;;13.00;;
38653;SDS011;24413;52.450;20.706;2023-01-28T03:33:23;29.00;;;15.25;;
38653;SDS011;24413;52.450;20.706;2023-01-28T03:36:08;27.02;;;13.70;;
38653;SDS011;24413;52.450;20.706;2023-01-28T03:38:52;24.35;;;13.07;;
38653;SDS011;24413;52.450;20.706;2023-01-28T03:41:21;23.95;;;14.82;;
38653;SDS011;24413;52.450;20.706;2023-01-28T03:43:47;24.30;;;13.40;;
38653;SDS011;24413;52.450;20.706;2023-01-28T03:46:12;27.25;;;12.90;;
38653;SDS011;24413;52.450;20.706;2023-01-28T03:48:38;27.33;;;14.35;;
38653;SDS011;24413;52.450;20.706;2023-01-28T03:51:03;26.63;;;13.50;;
38653;SDS011;24413;52.450;20.706;2023-01-28T03:53:28;28.23;;;13.93;;
38653;SDS011;24413;52.450;20.706;2023-01-28T03:55:54;25.45;;;15.02;;
38653;SDS011;24413;52.450;20.706;2023-01-28T03:58:20;26.63;;;14.45;;
38653;SDS011;24413;52.450;20.706;2023-01-28T04:00:47;29.05;;;15.45;;
38653;SDS011;24413;52.450;20.706;2023-01-28T04:03:16;25.70;;;13.93;;
38653;SDS011;24413;52.450;20.706;2023-01-28T04:06:03;24.02;;;13.82;;
38653;SDS011;24413;52.450;20.706;2023-01-28T04:08:27;27.98;;;14.88;;
38653;SDS011;24413;52.450;20.706;2023-01-28T04:10:53;25.77;;;14.82;;
38653;SDS011;24413;52.450;20.706;2023-01-28T04:13:18;32.08;;;16.15;;
38653;SDS011;24413;52.450;20.706;2023-01-28T04:15:43;25.35;;;15.23;;
38653;SDS011;24413;52.450;20.706;2023-01-28T04:18:09;29.08;;;16.67;;
38653;SDS011;24413;52.450;20.706;2023-01-28T04:20:35;30.23;;;16.92;;
38653;SDS011;24413;52.450;20.706;2023-01-28T04:23:00;26.85;;;16.15;;
38653;SDS011;24413;52.450;20.706;2023-01-28T04:25:25;25.60;;;15.23;;
38653;SDS011;24413;52.450;20.706;2023-01-28T04:27:51;26.27;;;15.90;;
38653;SDS011;24413;52.450;20.706;2023-01-28T04:30:16;32.80;;;17.02;;
38653;SDS011;24413;52.450;20.706;2023-01-28T04:32:41;32.25;;;16.77;;
38653;SDS011;24413;52.450;20.706;2023-01-28T04:35:07;32.33;;;17.52;;
38653;SDS011;24413;52.450;20.706;2023-01-28T04:37:32;28.65;;;16.90;;
38653;SDS011;24413;52.450;20.706;2023-01-28T04:39:57;30.98;;;18.15;;
38653;SDS011;24413;52.450;20.706;2023-01-28T04:42:22;32.90;;;17.83;;
38653;SDS011;24413;52.450;20.706;2023-01-28T04:44:48;38.33;;;19.23;;
38653;SDS011;24413;52.450;20.706;2023-01-28T04:47:13;36.65;;;20.00;;
38653;SDS011;24413;52.450;20.706;2023-01-28T04:49:39;38.88;;;19.10;;
38653;SDS011;24413;52.450;20.706;2023-01-28T04:52:04;34.40;;;19.33;;
38653;SDS011;24413;52.450;20.706;2023-01-28T04:54:29;40.42;;;21.00;;
38653;SDS011;24413;52.450;20.706;2023-01-28T04:56:54;38.00;;;19.80;;
38653;SDS011;24413;52.450;20.706;2023-01-28T04:59:20;32.95;;;18.80;;
38653;SDS011;24413;52.450;20.706;2023-01-28T05:01:45;39.53;;;21.13;;
38653;SDS011;24413;52.450;20.706;2023-01-28T05:04:11;31.85;;;19.42;;
38653;SDS011;24413;52.450;20.706;2023-01-28T05:06:36;41.08;;;21.42;;
38653;SDS011;24413;52.450;20.706;2023-01-28T05:09:01;33.45;;;19.10;;
38653;SDS011;24413;52.450;20.706;2023-01-28T05:11:26;41.92;;;20.05;;
38653;SDS011;24413;52.450;20.706;2023-01-28T05:13:53;35.80;;;21.75;;
38653;SDS011;24413;52.450;20.706;2023-01-28T05:16:18;42.30;;;20.92;;
38653;SDS011;24413;52.450;20.706;2023-01-28T05:18:43;39.00;;;20.92;;
38653;SDS011;24413;52.450;20.706;2023-01-28T05:21:12;36.42;;;20.25;;
38653;SDS011;24413;52.450;20.706;2023-01-28T05:23:37;40.33;;;20.65;;
38653;SDS011;24413;52.450;20.706;2023-01-28T05:26:02;32.72;;;18.95;;
38653;SDS011;24413;52.450;20.706;2023-01-28T05:28:27;44.60;;;21.63;;
38653;SDS011;24413;52.450;20.706;2023-01-28T05:30:53;31.83;;;20.23;;
38653;SDS011;24413;52.450;20.706;2023-01-28T05:33:18;41.47;;;21.85;;
38653;SDS011;24413;52.450;20.706;2023-01-28T05:35:44;43.60;;;20.23;;
38653;SDS011;24413;52.450;20.706;2023-01-28T05:38:09;37.25;;;20.17;;
38653;SDS011;24413;52.450;20.706;2023-01-28T05:40:34;39.42;;;20.55;;
38653;SDS011;24413;52.450;20.706;2023-01-28T05:42:59;38.75;;;21.92;;
38653;SDS011;24413;52.450;20.706;2023-01-28T05:45:25;36.20;;;19.40;;
38653;SDS011;24413;52.450;20.706;2023-01-28T05:47:50;40.58;;;19.95;;
38653;SDS011;24413;52.450;20.706;2023-01-28T05:50:15;33.65;;;19.05;;
38653;SDS011;24413;52.450;20.706;2023-01-28T05:52:40;34.95;;;19.30;;
38653;SDS011;24413;52.450;20.706;2023-01-28T05:55:06;35.45;;;20.63;;
38653;SDS011;24413;52.450;20.706;2023-01-28T05:57:31;35.10;;;19.23;;
38653;SDS011;24413;52.450;20.706;2023-01-28T05:59:57;33.65;;;18.60;;
38653;SDS011;24413;52.450;20.706;2023-01-28T06:02:22;37.15;;;20.27;;
38653;SDS011;24413;52.450;20.706;2023-01-28T06:04:47;36.00;;;19.73;;
38653;SDS011;24413;52.450;20.706;2023-01-28T06:07:13;34.53;;;19.63;;
38653;SDS011;24413;52.450;20.706;2023-01-28T06:09:39;34.58;;;18.67;;
38653;SDS011;24413;52.450;20.706;2023-01-28T06:12:05;34.10;;;19.42;;
38653;SDS011;24413;52.450;20.706;2023-01-28T06:14:30;34.80;;;18.98;;
38653;SDS011;24413;52.450;20.706;2023-01-28T06:16:55;30.77;;;19.45;;
38653;SDS011;24413;52.450;20.706;2023-01-28T06:19:21;29.13;;;18.27;;
38653;SDS011;24413;52.450;20.706;2023-01-28T06:21:46;33.90;;;19.05;;
38653;SDS011;24413;52.450;20.706;2023-01-28T06:24:11;33.60;;;19.23;;
38653;SDS011;24413;52.450;20.706;2023-01-28T06:26:37;34.45;;;19.42;;
38653;SDS011;24413;52.450;20.706;2023-01-28T06:29:03;28.52;;;18.00;;
38653;SDS011;24413;52.450;20.706;2023-01-28T06:31:28;35.50;;;19.77;;
38653;SDS011;24413;52.450;20.706;2023-01-28T06:33:53;30.50;;;19.70;;
38653;SDS011;24413;52.450;20.706;2023-01-28T06:36:19;31.30;;;19.48;;
38653;SDS011;24413;52.450;20.706;2023-01-28T06:38:44;32.72;;;19.83;;
38653;SDS011;24413;52.450;20.706;2023-01-28T06:41:09;35.72;;;18.73;;
38653;SDS011;24413;52.450;20.706;2023-01-28T06:43:35;30.33;;;17.52;;
38653;SDS011;24413;52.450;20.706;2023-01-28T06:46:00;26.25;;;17.60;;
38653;SDS011;24413;52.450;20.706;2023-01-28T06:48:26;26.23;;;17.58;;
38653;SDS011;24413;52.450;20.706;2023-01-28T06:50:51;24.92;;;16.30;;
38653;SDS011;24413;52.450;20.706;2023-01-28T06:53:16;24.85;;;17.42;;
38653;SDS011;24413;52.450;20.706;2023-01-28T06:55:42;28.60;;;17.85;;
38653;SDS011;24413;52.450;20.706;2023-01-28T06:58:07;24.23;;;16.35;;
38653;SDS011;24413;52.450;20.706;2023-01-28T07:00:32;31.77;;;19.48;;
38653;SDS011;24413;52.450;20.706;2023-01-28T07:02:58;25.38;;;17.35;;
38653;SDS011;24413;52.450;20.706;2023-01-28T07:05:23;22.55;;;15.38;;
38653;SDS011;24413;52.450;20.706;2023-01-28T07:07:48;30.58;;;18.27;;
38653;SDS011;24413;52.450;20.706;2023-01-28T07:10:14;24.60;;;16.85;;
38653;SDS011;24413;52.450;20.706;2023-01-28T07:12:39;26.13;;;16.70;;
38653;SDS011;24413;52.450;20.706;2023-01-28T07:15:04;27.23;;;16.98;;
38653;SDS011;24413;52.450;20.706;2023-01-28T07:17:30;20.75;;;15.68;;
38653;SDS011;24413;52.450;20.706;2023-01-28T07:19:55;25.08;;;16.88;;
38653;SDS011;24413;52.450;20.706;2023-01-28T07:22:20;29.00;;;17.70;;
38653;SDS011;24413;52.450;20.706;2023-01-28T07:24:46;21.63;;;14.10;;
38653;SDS011;24413;52.450;20.706;2023-01-28T07:27:11;22.67;;;15.15;;
38653;SDS011;24413;52.450;20.706;2023-01-28T07:29:36;24.08;;;15.32;;
38653;SDS011;24413;52.450;20.706;2023-01-28T07:32:01;22.80;;;14.25;;
38653;SDS011;24413;52.450;20.706;2023-01-28T07:34:28;24.63;;;15.57;;
38653;SDS011;24413;52.450;20.706;2023-01-28T07:36:54;22.73;;;15.88;;
38653;SDS011;24413;52.450;20.706;2023-01-28T07:39:19;27.52;;;17.17;;
38653;SDS011;24413;52.450;20.706;2023-01-28T07:41:44;26.42;;;16.40;;
38653;SDS011;24413;52.450;20.706;2023-01-28T07:44:10;29.33;;;18.90;;
38653;SDS011;24413;52.450;20.706;2023-01-28T07:46:35;30.02;;;18.58;;
38653;SDS011;24413;52.450;20.706;2023-01-28T07:49:01;31.48;;;18.58;;
38653;SDS011;24413;52.450;20.706;2023-01-28T07:51:26;30.67;;;18.77;;
38653;SDS011;24413;52.450;20.706;2023-01-28T07:53:51;27.55;;;18.52;;
38653;SDS011;24413;52.450;20.706;2023-01-28T07:56:16;30.00;;;18.92;;
38653;SDS011;24413;52.450;20.706;2023-01-28T07:58:42;28.73;;;18.13;;
38653;SDS011;24413;52.450;20.706;2023-01-28T08:01:07;22.70;;;16.33;;
38653;SDS011;24413;52.450;20.706;2023-01-28T08:03:32;23.85;;;17.13;;
38653;SDS011;24413;52.450;20.706;2023-01-28T08:05:58;35.28;;;22.05;;
38653;SDS011;24413;52.450;20.706;2023-01-28T08:08:24;42.13;;;24.60;;
38653;SDS011;24413;52.450;20.706;2023-01-28T08:10:50;37.28;;;21.95;;
38653;SDS011;24413;52.450;20.706;2023-01-28T08:13:15;35.75;;;21.48;;
38653;SDS011;24413;52.450;20.706;2023-01-28T08:15:41;28.30;;;20.05;;
38653;SDS011;24413;52.450;20.706;2023-01-28T08:18:08;25.98;;;17.75;;
38653;SDS011;24413;52.450;20.706;2023-01-28T08:20:33;26.05;;;17.25;;
38653;SDS011;24413;52.450;20.706;2023-01-28T08:25:30;30.20;;;15.43;;
38653;SDS011;24413;52.450;20.706;2023-01-28T08:27:55;23.10;;;15.60;;
38653;SDS011;24413;52.450;20.706;2023-01-28T08:30:20;22.13;;;15.52;;
38653;SDS011;24413;52.450;20.706;2023-01-28T08:32:46;22.13;;;15.82;;
38653;SDS011;24413;52.450;20.706;2023-01-28T08:35:11;24.25;;;16.17;;
38653;SDS011;24413;52.450;20.706;2023-01-28T08:37:36;26.63;;;18.23;;
38653;SDS011;24413;52.450;20.706;2023-01-28T08:40:02;26.83;;;18.50;;
38653;SDS011;24413;52.450;20.706;2023-01-28T08:42:28;32.67;;;19.92;;
38653;SDS011;24413;52.450;20.706;2023-01-28T08:44:53;31.10;;;18.70;;
38653;SDS011;24413;52.450;20.706;2023-01-28T08:47:18;34.95;;;20.02;;
38653;SDS011;24413;52.450;20.706;2023-01-28T08:49:44;39.13;;;22.98;;
38653;SDS011;24413;52.450;20.706;2023-01-28T08:52:09;29.08;;;17.23;;
38653;SDS011;24413;52.450;20.706;2023-01-28T08:54:36;26.05;;;17.40;;
38653;SDS011;24413;52.450;20.706;2023-01-28T08:57:01;22.70;;;16.13;;
38653;SDS011;24413;52.450;20.706;2023-01-28T08:59:27;24.15;;;16.73;;
38653;SDS011;24413;52.450;20.706;2023-01-28T09:01:52;23.08;;;15.57;;
38653;SDS011;24413;52.450;20.706;2023-01-28T09:04:17;23.30;;;16.65;;
38653;SDS011;24413;52.450;20.706;2023-01-28T09:06:42;30.67;;;16.88;;
38653;SDS011;24413;52.450;20.706;2023-01-28T09:09:08;27.25;;;16.30;;
38653;SDS011;24413;52.450;20.706;2023-01-28T09:11:33;27.13;;;18.15;;
38653;SDS011;24413;52.450;20.706;2023-01-28T09:13:58;24.13;;;17.27;;
38653;SDS011;24413;52.450;20.706;2023-01-28T09:16:24;20.48;;;15.48;;
38653;SDS011;24413;52.450;20.706;2023-01-28T09:18:50;26.67;;;16.70;;
38653;SDS011;24413;52.450;20.706;2023-01-28T09:21:15;28.58;;;17.98;;
38653;SDS011;24413;52.450;20.706;2023-01-28T09:23:41;28.00;;;17.80;;
38653;SDS011;24413;52.450;20.706;2023-01-28T09:26:06;25.70;;;16.73;;
38653;SDS011;24413;52.450;20.706;2023-01-28T09:28:33;31.20;;;17.00;;
38653;SDS011;24413;52.450;20.706;2023-01-28T09:31:08;27.83;;;17.77;;
38653;SDS011;24413;52.450;20.706;2023-01-28T09:33:34;32.47;;;21.33;;
38653;SDS011;24413;52.450;20.706;2023-01-28T09:36:00;27.10;;;19.08;;
38653;SDS011;24413;52.450;20.706;2023-01-28T09:38:26;32.05;;;19.08;;
38653;SDS011;24413;52.450;20.706;2023-01-28T09:40:52;33.75;;;21.65;;
38653;SDS011;24413;52.450;20.706;2023-01-28T09:45:50;31.73;;;20.73;;
38653;SDS011;24413;52.450;20.706;2023-01-28T09:48:18;29.20;;;19.42;;
38653;SDS011;24413;52.450;20.706;2023-01-28T09:50:46;30.48;;;19.35;;
38653;SDS011;24413;52.450;20.706;2023-01-28T09:53:18;28.67;;;18.27;;
38653;SDS011;24413;52.450;20.706;2023-01-28T09:55:45;33.53;;;20.58;;
38653;SDS011;24413;52.450;20.706;2023-01-28T09:58:13;27.33;;;18.35;;
38653;SDS011;24413;52.450;20.706;2023-01-28T10:05:54;30.58;;;18.67;;
38653;SDS011;24413;52.450;20.706;2023-01-28T10:10:53;38.42;;;20.45;;
38653;SDS011;24413;52.450;20.706;2023-01-28T10:13:26;35.00;;;20.75;;
38653;SDS011;24413;52.450;20.706;2023-01-28T10:18:36;26.08;;;17.77;;
38653;SDS011;24413;52.450;20.706;2023-01-28T10:21:05;29.77;;;18.00;;
38653;SDS011;24413;52.450;20.706;2023-01-28T10:25:57;25.88;;;15.27;;
38653;SDS011;24413;52.450;20.706;2023-01-28T10:28:27;26.73;;;16.55;;
38653;SDS011;24413;52.450;20.706;2023-01-28T10:30:53;42.30;;;20.98;;
38653;SDS011;24413;52.450;20.706;2023-01-28T10:33:23;28.30;;;19.33;;
38653;SDS011;24413;52.450;20.706;2023-01-28T10:35:53;34.22;;;20.00;;
38653;SDS011;24413;52.450;20.706;2023-01-28T10:38:19;39.45;;;19.55;;
38653;SDS011;24413;52.450;20.706;2023-01-28T10:40:45;32.22;;;18.95;;
38653;SDS011;24413;52.450;20.706;2023-01-28T10:43:12;23.08;;;15.93;;
38653;SDS011;24413;52.450;20.706;2023-01-28T10:45:40;21.00;;;15.65;;
38653;SDS011;24413;52.450;20.706;2023-01-28T10:50:51;29.15;;;17.70;;
38653;SDS011;24413;52.450;20.706;2023-01-28T10:53:16;22.70;;;16.48;;
38653;SDS011;24413;52.450;20.706;2023-01-28T10:55:51;22.05;;;16.45;;
38653;SDS011;24413;52.450;20.706;2023-01-28T10:58:26;25.88;;;16.60;;
38653;SDS011;24413;52.450;20.706;2023-01-28T11:00:52;28.50;;;17.20;;
38653;SDS011;24413;52.450;20.706;2023-01-28T11:03:18;21.42;;;15.73;;
38653;SDS011;24413;52.450;20.706;2023-01-28T11:05:50;22.15;;;16.00;;
38653;SDS011;24413;52.450;20.706;2023-01-28T11:08:16;22.85;;;15.82;;
38653;SDS011;24413;52.450;20.706;2023-01-28T11:10:43;25.23;;;16.95;;
38653;SDS011;24413;52.450;20.706;2023-01-28T11:13:27;25.85;;;17.75;;
38653;SDS011;24413;52.450;20.706;2023-01-28T11:18:20;28.88;;;18.17;;
38653;SDS011;24413;52.450;20.706;2023-01-28T11:23:46;28.63;;;18.25;;
38653;SDS011;24413;52.450;20.706;2023-01-28T11:28:39;26.08;;;17.23;;
38653;SDS011;24413;52.450;20.706;2023-01-28T11:31:05;31.25;;;18.15;;
38653;SDS011;24413;52.450;20.706;2023-01-28T11:33:37;26.85;;;17.90;;
38653;SDS011;24413;52.450;20.706;2023-01-28T11:38:28;25.42;;;17.92;;
38653;SDS011;24413;52.450;20.706;2023-01-28T11:40:55;32.03;;;19.70;;
38653;SDS011;24413;52.450;20.706;2023-01-28T11:43:21;28.23;;;18.52;;
38653;SDS011;24413;52.450;20.706;2023-01-28T11:51:02;28.42;;;20.42;;
38653;SDS011;24413;52.450;20.706;2023-01-28T11:53:43;34.85;;;19.48;;
38653;SDS011;24413;52.450;20.706;2023-01-28T12:01:32;33.65;;;21.50;;
38653;SDS011;24413;52.450;20.706;2023-01-28T12:06:50;37.55;;;24.48;;
38653;SDS011;24413;52.450;20.706;2023-01-28T12:11:58;36.47;;;22.27;;
38653;SDS011;24413;52.450;20.706;2023-01-28T12:19:37;34.78;;;21.45;;
38653;SDS011;24413;52.450;20.706;2023-01-28T12:22:15;28.63;;;20.27;;
38653;SDS011;24413;52.450;20.706;2023-01-28T12:45:14;22.30;;;15.10;;
38653;SDS011;24413;52.450;20.706;2023-01-28T12:47:42;27.02;;;16.95;;
38653;SDS011;24413;52.450;20.706;2023-01-28T12:50:14;29.27;;;17.27;;
38653;SDS011;24413;52.450;20.706;2023-01-28T12:52:45;26.45;;;16.75;;
38653;SDS011;24413;52.450;20.706;2023-01-28T12:57:56;28.25;;;17.85;;
38653;SDS011;24413;52.450;20.706;2023-01-28T13:02:54;28.92;;;17.75;;
38653;SDS011;24413;52.450;20.706;2023-01-28T13:05:21;21.35;;;16.75;;
38653;SDS011;24413;52.450;20.706;2023-01-28T13:10:37;29.42;;;20.00;;
38653;SDS011;24413;52.450;20.706;2023-01-28T13:13:03;26.88;;;19.25;;
38653;SDS011;24413;52.450;20.706;2023-01-28T13:15:29;29.50;;;18.98;;
38653;SDS011;24413;52.450;20.706;2023-01-28T13:20:28;29.15;;;19.02;;
38653;SDS011;24413;52.450;20.706;2023-01-28T13:22:59;31.90;;;19.67;;
38653;SDS011;24413;52.450;20.706;2023-01-28T13:25:25;34.65;;;18.90;;
38653;SDS011;24413;52.450;20.706;2023-01-28T13:27:57;39.97;;;20.42;;
38653;SDS011;24413;52.450;20.706;2023-01-28T13:30:27;31.92;;;19.83;;
38653;SDS011;24413;52.450;20.706;2023-01-28T13:33:01;41.83;;;23.45;;
38653;SDS011;24413;52.450;20.706;2023-01-28T13:35:29;36.78;;;23.15;;
38653;SDS011;24413;52.450;20.706;2023-01-28T13:37:54;36.78;;;21.38;;
38653;SDS011;24413;52.450;20.706;2023-01-28T13:40:25;38.05;;;21.70;;
38653;SDS011;24413;52.450;20.706;2023-01-28T13:43:04;32.72;;;20.25;;
38653;SDS011;24413;52.450;20.706;2023-01-28T13:45:29;33.55;;;20.52;;
38653;SDS011;24413;52.450;20.706;2023-01-28T13:50:40;30.92;;;19.02;;
38653;SDS011;24413;52.450;20.706;2023-01-28T13:53:15;30.80;;;20.08;;
38653;SDS011;24413;52.450;20.706;2023-01-28T13:55:41;30.75;;;19.83;;
38653;SDS011;24413;52.450;20.706;2023-01-28T13:58:11;30.27;;;18.92;;
38653;SDS011;24413;52.450;20.706;2023-01-28T14:10:47;32.47;;;20.55;;
38653;SDS011;24413;52.450;20.706;2023-01-28T14:18:21;50.83;;;28.00;;
38653;SDS011;24413;52.450;20.706;2023-01-28T14:20:48;38.38;;;25.15;;
38653;SDS011;24413;52.450;20.706;2023-01-28T14:23:18;32.30;;;22.58;;
38653;SDS011;24413;52.450;20.706;2023-01-28T14:28:40;40.65;;;25.73;;
38653;SDS011;24413;52.450;20.706;2023-01-28T14:31:14;30.85;;;21.20;;
38653;SDS011;24413;52.450;20.706;2023-01-28T14:33:40;44.58;;;27.77;;
38653;SDS011;24413;52.450;20.706;2023-01-28T14:36:09;38.97;;;23.67;;
38653;SDS011;24413;52.450;20.706;2023-01-28T14:38:36;44.03;;;25.90;;
38653;SDS011;24413;52.450;20.706;2023-01-28T14:41:02;48.83;;;30.95;;
38653;SDS011;24413;52.450;20.706;2023-01-28T14:43:28;59.05;;;38.63;;
38653;SDS011;24413;52.450;20.706;2023-01-28T14:50:59;48.22;;;30.73;;
38653;SDS011;24413;52.450;20.706;2023-01-28T14:56:06;65.40;;;38.22;;
38653;SDS011;24413;52.450;20.706;2023-01-28T14:58:36;47.70;;;26.95;;
38653;SDS011;24413;52.450;20.706;2023-01-28T15:01:03;47.05;;;28.95;;
38653;SDS011;24413;52.450;20.706;2023-01-28T15:03:28;52.58;;;33.55;;
38653;SDS011;24413;52.450;20.706;2023-01-28T15:06:14;45.38;;;29.80;;
38653;SDS011;24413;52.450;20.706;2023-01-28T15:08:40;45.13;;;28.45;;
38653;SDS011;24413;52.450;20.706;2023-01-28T15:11:12;36.38;;;23.27;;
38653;SDS011;24413;52.450;20.706;2023-01-28T15:13:40;88.63;;;47.28;;
38653;SDS011;24413;52.450;20.706;2023-01-28T15:16:06;419.95;;;130.75;;
38653;SDS011;24413;52.450;20.706;2023-01-28T15:18:51;216.20;;;73.65;;
38653;SDS011;24413;52.450;20.706;2023-01-28T15:21:20;102.78;;;48.10;;
38653;SDS011;24413;52.450;20.706;2023-01-28T15:23:47;89.32;;;43.22;;
38653;SDS011;24413;52.450;20.706;2023-01-28T15:26:14;109.00;;;48.55;;
38653;SDS011;24413;52.450;20.706;2023-01-28T15:28:41;87.85;;;40.08;;
38653;SDS011;24413;52.450;20.706;2023-01-28T15:31:14;72.72;;;38.25;;
38653;SDS011;24413;52.450;20.706;2023-01-28T15:33:40;49.60;;;27.20;;
38653;SDS011;24413;52.450;20.706;2023-01-28T15:36:06;41.60;;;22.67;;
38653;SDS011;24413;52.450;20.706;2023-01-28T15:38:31;50.85;;;29.50;;
38653;SDS011;24413;52.450;20.706;2023-01-28T15:40:58;88.28;;;44.53;;
38653;SDS011;24413;52.450;20.706;2023-01-28T15:43:24;74.57;;;38.90;;
38653;SDS011;24413;52.450;20.706;2023-01-28T15:45:51;82.50;;;34.95;;
38653;SDS011;24413;52.450;20.706;2023-01-28T15:48:19;74.63;;;34.88;;
38653;SDS011;24413;52.450;20.706;2023-01-28T15:50:44;55.13;;;27.85;;
38653;SDS011;24413;52.450;20.706;2023-01-28T15:53:10;51.50;;;27.63;;
38653;SDS011;24413;52.450;20.706;2023-01-28T15:55:39;45.97;;;27.70;;
38653;SDS011;24413;52.450;20.706;2023-01-28T16:00:36;45.25;;;26.83;;
38653;SDS011;24413;52.450;20.706;2023-01-28T16:03:06;63.72;;;29.67;;
38653;SDS011;24413;52.450;20.706;2023-01-28T16:05:32;58.63;;;29.10;;
38653;SDS011;24413;52.450;20.706;2023-01-28T16:08:06;72.53;;;37.20;;
38653;SDS011;24413;52.450;20.706;2023-01-28T16:10:32;60.72;;;31.90;;
38653;SDS011;24413;52.450;20.706;2023-01-28T16:13:03;72.38;;;36.67;;
38653;SDS011;24413;52.450;20.706;2023-01-28T16:15:30;59.78;;;29.05;;
38653;SDS011;24413;52.450;20.706;2023-01-28T16:17:56;69.65;;;35.83;;
38653;SDS011;24413;52.450;20.706;2023-01-28T16:20:22;59.30;;;35.80;;
38653;SDS011;24413;52.450;20.706;2023-01-28T16:22:48;35.83;;;22.52;;
38653;SDS011;24413;52.450;20.706;2023-01-28T16:27:45;31.33;;;18.35;;